createdAt,value
2019-06-20T00:01:27.578Z,63.66
2019-06-20T00:04:00.974Z,63.87
2019-06-20T00:06:34.386Z,64.02
2019-06-20T00:09:08.697Z,63.97
2019-06-20T00:11:42.097Z,64.02
2019-06-20T00:14:15.752Z,63.69
2019-06-20T00:16:49.241Z,63.09
2019-06-20T00:19:22.623Z,63.06
2019-06-20T00:21:56.044Z,62.71
2019-06-20T00:24:29.666Z,62.51
2019-06-20T00:27:03.067Z,62.27
2019-06-20T00:29:36.461Z,62.02
2019-06-20T00:32:09.852Z,61.46
2019-06-20T00:34:43.258Z,61.00
2019-06-20T00:37:16.645Z,60.92
2019-06-20T00:39:50.034Z,60.73
2019-06-20T00:42:23.429Z,60.99
2019-06-20T00:44:57.799Z,61.40
2019-06-20T00:47:31.449Z,61.08
2019-06-20T00:50:05.867Z,60.81
2019-06-20T00:52:39.240Z,60.58
2019-06-20T00:55:12.641Z,60.57
2019-06-20T00:57:46.034Z,60.29
2019-06-20T01:00:21.632Z,60.23
2019-06-20T01:02:55.025Z,60.27
2019-06-20T01:05:28.507Z,60.06
2019-06-20T01:08:01.942Z,59.73
2019-06-20T01:10:35.613Z,59.42
2019-06-20T01:13:09.262Z,59.29
2019-06-20T01:15:42.731Z,59.44
2019-06-20T01:18:16.126Z,59.17
2019-06-20T01:20:49.757Z,58.14
2019-06-20T01:23:23.463Z,57.64
2019-06-20T01:25:57.114Z,56.99
2019-06-20T01:28:30.506Z,56.97
2019-06-20T01:31:03.907Z,57.00
2019-06-20T01:33:37.318Z,57.19
2019-06-20T01:36:10.725Z,57.84
2019-06-20T01:38:44.117Z,58.52
2019-06-20T01:41:17.503Z,59.19
2019-06-20T01:43:51.283Z,59.56
2019-06-20T01:46:24.677Z,60.21
2019-06-20T01:48:58.132Z,60.60
2019-06-20T01:51:31.546Z,61.09
2019-06-20T01:54:05.021Z,61.42
2019-06-20T01:56:38.397Z,61.68
2019-06-20T01:59:12.574Z,62.02
2019-06-20T02:01:46.220Z,62.45
2019-06-20T02:04:19.629Z,62.79
2019-06-20T02:06:53.098Z,63.14
2019-06-20T02:09:26.477Z,63.23
2019-06-20T02:12:00.138Z,63.63
2019-06-20T02:14:33.522Z,63.96
2019-06-20T02:17:07.174Z,64.32
2019-06-20T02:19:40.809Z,64.32
2019-06-20T02:22:14.213Z,64.20
2019-06-20T02:24:47.594Z,64.31
2019-06-20T02:27:21.668Z,64.53
2019-06-20T02:29:55.297Z,64.42
2019-06-20T02:32:28.699Z,64.39
2019-06-20T02:35:02.425Z,64.57
2019-06-20T02:37:35.826Z,64.63
2019-06-20T02:40:09.696Z,64.53
2019-06-20T02:42:43.413Z,64.53
2019-06-20T02:45:16.983Z,64.48
2019-06-20T02:47:50.409Z,64.44
2019-06-20T02:50:23.923Z,64.76
2019-06-20T02:52:59.689Z,64.80
2019-06-20T02:55:33.423Z,65.10
2019-06-20T02:58:06.828Z,65.45
2019-06-20T03:00:52.694Z,65.75
2019-06-20T03:03:27.238Z,66.00
2019-06-20T03:06:00.876Z,66.41
2019-06-20T03:08:34.342Z,66.47
2019-06-20T03:11:07.730Z,66.85
2019-06-20T03:13:41.430Z,67.29
2019-06-20T03:16:14.797Z,67.82
2019-06-20T03:18:48.425Z,68.21
2019-06-20T03:21:22.054Z,68.50
2019-06-20T03:23:55.467Z,68.46
2019-06-20T03:26:29.100Z,68.45
2019-06-20T03:29:02.747Z,68.04
2019-06-20T03:31:36.155Z,68.07
2019-06-20T03:34:09.793Z,67.91
2019-06-20T03:36:43.208Z,67.76
2019-06-20T03:39:16.839Z,67.27
2019-06-20T03:41:50.242Z,67.34
2019-06-20T03:44:23.644Z,67.63
2019-06-20T03:46:57.280Z,68.02
2019-06-20T03:49:30.935Z,68.34
2019-06-20T03:52:04.342Z,68.36
2019-06-20T03:54:37.810Z,68.12
2019-06-20T03:57:11.205Z,68.11
2019-06-20T03:59:44.610Z,68.26
2019-06-20T04:02:18.250Z,68.38
2019-06-20T04:04:51.892Z,68.41
2019-06-20T04:07:25.299Z,68.26
2019-06-20T04:09:58.707Z,68.07
2019-06-20T04:12:32.104Z,67.85
2019-06-20T04:15:18.713Z,67.87
2019-06-20T04:17:42.013Z,67.95
2019-06-20T04:20:15.938Z,68.24
2019-06-20T04:22:49.338Z,68.41
2019-06-20T04:25:22.816Z,68.53
2019-06-20T04:27:56.274Z,68.40
2019-06-20T04:30:29.752Z,68.37
2019-06-20T04:33:03.084Z,68.63
2019-06-20T04:35:36.510Z,68.62
2019-06-20T04:38:09.900Z,68.59
2019-06-20T04:40:43.304Z,68.70
2019-06-20T04:43:16.705Z,68.78
2019-06-20T04:45:51.744Z,68.71
2019-06-20T04:48:25.130Z,69.04
2019-06-20T04:50:58.788Z,69.25
2019-06-20T04:53:32.169Z,69.43
2019-06-20T04:56:05.976Z,69.58
2019-06-20T04:58:39.508Z,69.83
2019-06-20T05:01:12.989Z,69.95
2019-06-20T05:03:46.398Z,70.06
2019-06-20T05:06:19.822Z,70.14
2019-06-20T05:08:53.215Z,69.96
2019-06-20T05:11:26.618Z,69.82
2019-06-20T05:14:01.380Z,69.63
2019-06-20T05:16:34.778Z,69.30
2019-06-20T05:19:08.189Z,69.28
2019-06-20T05:21:41.595Z,69.17
2019-06-20T05:24:15.002Z,69.02
2019-06-20T05:26:48.649Z,68.89
2019-06-20T05:29:22.040Z,68.85
2019-06-20T05:31:55.427Z,68.75
2019-06-20T05:34:29.097Z,68.45
2019-06-20T05:37:02.486Z,68.06
2019-06-20T05:39:36.138Z,67.98
2019-06-20T05:42:09.541Z,67.64
2019-06-20T05:44:43.184Z,67.50
2019-06-20T05:47:17.790Z,67.55
2019-06-20T05:49:51.471Z,67.29
2019-06-20T05:52:24.858Z,67.17
2019-06-20T05:54:58.261Z,66.96
2019-06-20T05:57:31.909Z,66.90
2019-06-20T06:00:12.256Z,66.62
2019-06-20T06:02:45.656Z,66.57
2019-06-20T06:05:19.412Z,66.79
2019-06-20T06:07:53.047Z,67.61
2019-06-20T06:10:26.458Z,68.04
2019-06-20T06:12:59.866Z,68.44
2019-06-20T06:15:33.360Z,68.64
2019-06-20T06:18:06.993Z,68.39
2019-06-20T06:20:40.398Z,68.29
2019-06-20T06:23:13.785Z,68.50
2019-06-20T06:25:47.187Z,68.36
2019-06-20T06:28:20.577Z,68.25
2019-06-20T06:30:54.228Z,67.89
2019-06-20T06:33:27.631Z,67.56
2019-06-20T06:36:01.281Z,67.94
2019-06-20T06:38:34.871Z,68.01
2019-06-20T06:41:08.267Z,68.25
2019-06-20T06:43:42.259Z,68.71
2019-06-20T06:46:15.750Z,68.88
2019-06-20T06:48:49.379Z,69.08
2019-06-20T06:51:22.798Z,69.19
2019-06-20T06:53:56.207Z,69.57
2019-06-20T06:56:29.660Z,69.20
2019-06-20T06:59:03.052Z,68.90
2019-06-20T07:01:36.459Z,68.38
2019-06-20T07:04:09.854Z,68.40
2019-06-20T07:06:43.662Z,67.91
2019-06-20T07:09:16.990Z,67.35
2019-06-20T07:11:50.644Z,67.43
2019-06-20T07:14:24.029Z,65.82
2019-06-20T07:17:00.522Z,65.61
2019-06-20T07:19:32.561Z,65.36
2019-06-20T07:22:06.033Z,65.85
2019-06-20T07:24:39.447Z,65.83
2019-06-20T07:27:13.971Z,65.62
2019-06-20T07:29:48.539Z,65.36
2019-06-20T07:32:23.175Z,65.40
2019-06-20T07:34:56.563Z,64.85
2019-06-20T07:37:29.970Z,64.15
2019-06-20T07:40:05.354Z,63.74
2019-06-20T07:42:38.755Z,63.99
2019-06-20T07:45:12.792Z,63.96
2019-06-20T07:47:46.225Z,64.00
2019-06-20T07:50:19.839Z,63.89
2019-06-20T07:53:02.110Z,63.77
2019-06-20T07:55:28.520Z,63.72
2019-06-20T07:58:01.938Z,63.96
2019-06-20T08:00:35.354Z,63.76
2019-06-20T08:03:08.817Z,64.11
2019-06-20T08:05:42.260Z,64.10
2019-06-20T08:08:15.664Z,64.17
2019-06-20T08:10:49.057Z,64.49
2019-06-20T08:13:22.554Z,64.28
2019-06-20T08:15:55.982Z,64.98
2019-06-20T08:18:29.381Z,66.06
2019-06-20T08:21:02.838Z,67.18
2019-06-20T08:23:36.533Z,67.72
2019-06-20T08:26:10.102Z,67.69
2019-06-20T08:28:43.755Z,67.53
2019-06-20T08:31:17.392Z,67.32
2019-06-20T08:33:51.144Z,66.95
2019-06-20T08:36:25.565Z,66.97
2019-06-20T08:39:00.258Z,67.34
2019-06-20T08:41:34.028Z,67.70
2019-06-20T08:44:07.870Z,67.97
2019-06-20T08:46:41.281Z,68.30
2019-06-20T08:49:14.936Z,68.48
2019-06-20T08:51:48.354Z,68.64
2019-06-20T08:54:21.752Z,68.64
2019-06-20T08:56:57.063Z,68.86
2019-06-20T08:59:30.311Z,68.67
2019-06-20T09:04:38.207Z,68.77
2019-06-20T09:07:11.645Z,68.29
2019-06-20T09:09:45.038Z,67.75
2019-06-20T09:12:18.453Z,67.95
2019-06-20T09:14:52.620Z,67.67
2019-06-20T09:17:26.986Z,67.37
2019-06-20T09:20:00.385Z,67.11
2019-06-20T09:22:33.787Z,66.24
2019-06-20T09:25:08.024Z,66.25
2019-06-20T09:27:41.525Z,65.28
2019-06-20T09:30:16.993Z,65.54
2019-06-20T09:32:52.273Z,64.89
2019-06-20T09:35:25.839Z,65.23
2019-06-20T09:37:59.472Z,64.88
2019-06-20T09:40:32.845Z,64.48
2019-06-20T09:43:06.426Z,64.32
2019-06-20T09:45:39.972Z,63.65
2019-06-20T09:48:13.378Z,63.84
2019-06-20T09:50:49.350Z,64.18
2019-06-20T09:53:22.092Z,63.43
2019-06-20T09:55:55.768Z,62.87
2019-06-20T09:58:29.190Z,62.34
2019-06-20T10:01:02.581Z,61.45
2019-06-20T10:03:35.988Z,61.29
2019-06-20T10:06:13.914Z,61.39
2019-06-20T10:08:46.601Z,61.73
2019-06-20T10:11:19.903Z,61.62
2019-06-20T10:13:54.289Z,59.97
2019-06-20T10:16:28.017Z,60.17
2019-06-20T10:19:01.525Z,58.72
2019-06-20T10:21:34.986Z,58.75
2019-06-20T10:24:08.517Z,57.71
2019-06-20T10:26:41.902Z,57.08
2019-06-20T10:29:15.436Z,57.20
2019-06-20T10:31:49.097Z,56.54
2019-06-20T10:34:22.494Z,57.11
2019-06-20T10:36:57.075Z,57.28
2019-06-20T10:39:30.580Z,57.45
2019-06-20T10:42:04.103Z,56.69
2019-06-20T10:44:37.499Z,57.49
2019-06-20T10:47:10.996Z,57.09
2019-06-20T10:49:45.044Z,57.25
2019-06-20T10:52:19.823Z,56.35
2019-06-20T10:54:53.474Z,56.85
2019-06-20T10:57:26.939Z,56.16
2019-06-20T11:00:00.409Z,56.10
2019-06-20T11:02:33.816Z,55.34
2019-06-20T11:05:07.730Z,54.97
2019-06-20T11:07:42.482Z,54.83
2019-06-20T11:10:17.027Z,54.27
2019-06-20T11:12:55.745Z,52.73
2019-06-20T11:15:26.181Z,51.25
2019-06-20T11:17:59.633Z,51.41
2019-06-20T11:20:33.797Z,51.53
2019-06-20T11:23:07.363Z,52.57
2019-06-20T11:25:42.007Z,51.53
2019-06-20T11:28:15.433Z,51.06
2019-06-20T11:30:59.538Z,51.09
2019-06-20T11:33:24.247Z,51.33
2019-06-20T11:35:57.888Z,51.08
2019-06-20T11:38:31.350Z,51.82
2019-06-20T11:41:04.821Z,52.76
2019-06-20T11:43:38.446Z,52.69
2019-06-20T11:46:11.799Z,53.52
2019-06-20T11:48:47.109Z,53.71
2019-06-20T11:51:20.763Z,53.35
2019-06-20T11:53:54.166Z,54.03
2019-06-20T11:56:27.554Z,53.63
2019-06-20T11:59:01.014Z,54.10
2019-06-20T12:01:55.168Z,54.46
2019-06-20T12:04:29.075Z,54.09
2019-06-20T12:07:02.454Z,54.45
2019-06-20T12:09:36.614Z,54.44
2019-06-20T12:12:10.128Z,53.83
2019-06-20T12:14:44.298Z,52.84
2019-06-20T12:17:17.674Z,51.84
2019-06-20T12:19:51.073Z,52.22
2019-06-20T12:22:24.466Z,51.35
2019-06-20T12:24:57.883Z,49.68
2019-06-20T12:27:31.349Z,50.54
2019-06-20T12:30:07.351Z,49.35
2019-06-20T12:32:42.361Z,47.91
2019-06-20T12:35:16.022Z,48.85
2019-06-20T12:37:50.126Z,49.02
2019-06-20T12:40:24.252Z,49.92
2019-06-20T12:42:57.649Z,49.34
2019-06-20T12:45:31.070Z,48.16
2019-06-20T12:48:04.532Z,48.14
2019-06-20T12:50:38.515Z,47.23
2019-06-20T12:53:13.323Z,48.10
2019-06-20T12:55:47.541Z,47.48
2019-06-20T12:58:20.982Z,48.32
2019-06-20T13:00:54.530Z,48.53
2019-06-20T13:03:27.878Z,48.39
2019-06-20T13:06:01.345Z,48.01
2019-06-20T13:08:35.183Z,48.41
2019-06-20T13:11:09.007Z,48.41
2019-06-20T13:13:53.342Z,49.71
2019-06-20T13:16:26.875Z,48.98
2019-06-20T13:19:00.627Z,48.37
2019-06-20T13:21:34.104Z,48.56
2019-06-20T13:24:07.563Z,48.90
2019-06-20T13:26:42.348Z,49.33
2019-06-20T13:29:15.766Z,48.99
2019-06-20T13:32:02.089Z,50.20
2019-06-20T13:34:24.351Z,50.59
2019-06-20T13:36:57.854Z,50.17
2019-06-20T13:39:31.347Z,50.59
2019-06-20T13:42:04.851Z,49.54
2019-06-20T13:44:39.620Z,49.71
2019-06-20T13:47:13.519Z,50.09
2019-06-20T13:49:47.733Z,49.60
2019-06-20T13:52:21.372Z,50.33
2019-06-20T13:54:55.365Z,49.17
2019-06-20T13:57:28.750Z,50.34
2019-06-20T14:00:02.130Z,50.25
2019-06-20T14:02:35.527Z,49.98
2019-06-20T14:05:10.278Z,48.02
2019-06-20T14:07:48.339Z,47.99
2019-06-20T14:10:19.665Z,46.91
2019-06-20T14:12:53.100Z,46.76
2019-06-20T14:15:26.494Z,47.16
2019-06-20T14:17:59.900Z,48.26
2019-06-20T14:20:33.286Z,46.66
2019-06-20T14:23:06.682Z,47.72
2019-06-20T14:25:40.323Z,48.09
2019-06-20T14:28:13.727Z,48.31
2019-06-20T14:30:48.346Z,48.26
2019-06-20T14:33:21.791Z,48.06
2019-06-20T14:35:55.449Z,49.29
2019-06-20T14:38:28.946Z,49.12
2019-06-20T14:41:02.342Z,49.39
2019-06-20T14:43:35.757Z,49.60
2019-06-20T14:46:09.387Z,49.76
2019-06-20T14:48:43.555Z,49.84
2019-06-20T14:51:17.908Z,50.40
2019-06-20T14:53:52.701Z,50.35
2019-06-20T14:56:26.142Z,51.15
2019-06-20T14:58:59.577Z,50.95
2019-06-20T15:01:32.975Z,51.58
2019-06-20T15:04:06.630Z,51.84
2019-06-20T15:06:40.021Z,51.78
2019-06-20T15:09:13.419Z,52.64
2019-06-20T15:11:48.194Z,53.37
2019-06-20T15:14:22.013Z,54.45
2019-06-20T15:16:55.653Z,56.62
2019-06-20T15:19:29.328Z,57.82
2019-06-20T15:22:02.729Z,58.62
2019-06-20T15:24:36.145Z,59.29
2019-06-20T15:27:09.624Z,60.20
2019-06-20T15:29:43.018Z,60.70
2019-06-20T15:32:16.664Z,61.18
2019-06-20T15:34:51.589Z,61.68
2019-06-20T15:37:25.227Z,61.54
2019-06-20T15:39:58.649Z,61.95
2019-06-20T15:42:32.335Z,62.17
2019-06-20T15:45:07.330Z,61.97
2019-06-20T15:47:40.810Z,62.39
2019-06-20T15:50:14.634Z,62.18
2019-06-20T15:52:48.275Z,62.28
2019-06-20T15:55:21.670Z,62.38
2019-06-20T15:57:55.071Z,62.28
2019-06-20T16:00:28.534Z,63.49
2019-06-20T16:03:09.896Z,64.68
2019-06-20T16:05:40.405Z,65.38
2019-06-20T16:08:12.215Z,66.49
2019-06-20T16:10:45.748Z,67.16
2019-06-20T16:13:19.404Z,67.39
2019-06-20T16:15:55.358Z,67.00
2019-06-20T16:18:28.772Z,67.04
2019-06-20T16:21:02.188Z,66.73
2019-06-20T16:23:36.555Z,66.85
2019-06-20T16:26:09.941Z,66.85
2019-06-20T16:28:43.343Z,66.67
2019-06-20T16:31:26.623Z,67.00
2019-06-20T16:33:52.880Z,67.08
2019-06-20T16:36:26.272Z,66.96
2019-06-20T16:38:59.929Z,67.28
2019-06-20T16:41:33.324Z,67.90
2019-06-20T16:44:06.793Z,68.71
2019-06-20T16:46:40.178Z,68.83
2019-06-20T16:49:13.582Z,68.58
2019-06-20T16:51:47.223Z,67.94
2019-06-20T16:54:20.903Z,67.42
2019-06-20T16:56:54.526Z,67.04
2019-06-20T16:59:27.979Z,67.77
2019-06-20T17:02:01.399Z,67.57
2019-06-20T17:04:34.885Z,67.38
2019-06-20T17:07:08.537Z,67.67
2019-06-20T17:09:41.950Z,67.46
2019-06-20T17:12:15.346Z,67.51
2019-06-20T17:14:48.744Z,67.47
2019-06-20T17:17:22.394Z,67.53
2019-06-20T17:19:56.047Z,66.56
2019-06-20T17:22:29.457Z,65.83
2019-06-20T17:25:03.129Z,64.87
2019-06-20T17:27:36.646Z,64.11
2019-06-20T17:30:12.236Z,63.78
2019-06-20T17:32:45.634Z,63.19
2019-06-20T17:35:19.378Z,63.18
2019-06-20T17:37:52.771Z,62.56
2019-06-20T17:40:26.324Z,62.69
2019-06-20T17:42:59.742Z,62.23
2019-06-20T17:45:33.190Z,62.63
2019-06-20T17:48:06.577Z,63.26
2019-06-20T17:50:40.008Z,63.70
2019-06-20T17:53:13.390Z,63.44
2019-06-20T17:55:46.782Z,63.20
2019-06-20T17:58:20.409Z,63.33
2019-06-20T18:00:53.907Z,63.13
2019-06-20T18:03:27.573Z,63.30
2019-06-20T18:06:00.957Z,63.37
2019-06-20T18:08:35.273Z,63.42
2019-06-20T18:11:08.668Z,63.68
2019-06-20T18:13:42.045Z,63.91
2019-06-20T18:16:25.151Z,64.54
2019-06-20T18:18:50.567Z,64.80
2019-06-20T18:21:24.205Z,64.50
2019-06-20T18:23:57.590Z,64.61
2019-06-20T18:26:31.006Z,64.61
2019-06-20T18:29:04.470Z,64.98
2019-06-20T18:31:37.867Z,64.66
2019-06-20T18:34:11.503Z,64.82
2019-06-20T18:36:44.901Z,64.46
2019-06-20T18:39:18.295Z,64.52
2019-06-20T18:41:51.702Z,64.30
2019-06-20T18:44:25.830Z,64.04
2019-06-20T18:46:59.241Z,63.67
2019-06-20T18:49:32.641Z,63.79
2019-06-20T18:52:06.038Z,64.32
2019-06-20T18:54:39.430Z,64.81
2019-06-20T18:57:12.829Z,65.08
2019-06-20T18:59:46.241Z,65.08
2019-06-20T19:02:19.868Z,65.22
2019-06-20T19:04:53.262Z,65.05
2019-06-20T19:07:26.645Z,65.24
2019-06-20T19:10:00.300Z,65.59
2019-06-20T19:12:33.935Z,66.17
2019-06-20T19:15:08.490Z,66.41
2019-06-20T19:17:41.872Z,66.70
2019-06-20T19:20:15.882Z,67.07
2019-06-20T19:22:49.336Z,66.86
2019-06-20T19:25:22.731Z,66.83
2019-06-20T19:27:56.383Z,66.92
2019-06-20T19:30:38.461Z,66.99
2019-06-20T19:33:11.849Z,67.25
2019-06-20T19:35:45.254Z,67.34
2019-06-20T19:38:18.647Z,67.34
2019-06-20T19:40:52.390Z,67.37
2019-06-20T19:43:25.782Z,67.37
2019-06-20T19:45:59.183Z,67.25
2019-06-20T19:48:32.575Z,67.18
2019-06-20T19:51:06.114Z,67.28
2019-06-20T19:53:39.871Z,67.21
2019-06-20T19:56:13.338Z,67.49
2019-06-20T19:58:46.727Z,67.87
2019-06-20T20:01:20.375Z,67.93
2019-06-20T20:03:53.770Z,67.83
2019-06-20T20:06:27.457Z,67.97
2019-06-20T20:09:01.180Z,68.06
2019-06-20T20:11:34.583Z,67.90
2019-06-20T20:14:07.968Z,67.99
2019-06-20T20:16:41.373Z,68.23
2019-06-20T20:19:14.763Z,68.18
2019-06-20T20:21:48.165Z,68.99
2019-06-20T20:24:21.591Z,68.93
2019-06-20T20:26:54.949Z,68.81
2019-06-20T20:29:28.337Z,68.28
2019-06-20T20:32:01.736Z,68.17
2019-06-20T20:34:35.131Z,67.74
2019-06-20T20:37:08.531Z,67.69
2019-06-20T20:39:41.966Z,67.51
2019-06-20T20:42:17.728Z,67.51
2019-06-20T20:44:50.431Z,67.65
2019-06-20T20:47:23.850Z,67.80
2019-06-20T20:49:57.492Z,67.92
2019-06-20T20:52:30.894Z,68.17
2019-06-20T20:55:06.967Z,68.33
2019-06-20T20:57:40.379Z,68.37
2019-06-20T21:00:28.545Z,68.46
2019-06-20T21:03:01.943Z,68.45
2019-06-20T21:05:50.430Z,68.52
2019-06-20T21:08:10.470Z,68.92
2019-06-20T21:10:44.898Z,69.13
2019-06-20T21:13:18.368Z,69.36
2019-06-20T21:15:51.762Z,69.48
2019-06-20T21:18:25.167Z,69.77
2019-06-20T21:20:58.564Z,69.96
2019-06-20T21:23:31.963Z,69.89
2019-06-20T21:26:05.419Z,69.95
2019-06-20T21:28:38.814Z,70.03
2019-06-20T21:31:12.650Z,70.28
2019-06-20T21:33:46.064Z,70.38
2019-06-20T21:36:19.455Z,70.50
2019-06-20T21:38:52.921Z,70.63
2019-06-20T21:41:26.368Z,70.75
2019-06-20T21:43:59.731Z,70.82
2019-06-20T21:46:33.128Z,70.86
2019-06-20T21:49:06.628Z,70.91
2019-06-20T21:51:40.070Z,71.08
2019-06-20T21:54:13.478Z,71.28
2019-06-20T21:56:46.859Z,71.25
2019-06-20T21:59:20.259Z,71.20
2019-06-20T22:01:53.903Z,71.34
2019-06-20T22:04:27.655Z,71.83
2019-06-20T22:07:01.284Z,72.12
2019-06-20T22:09:34.706Z,72.45
2019-06-20T22:12:08.081Z,72.56
2019-06-20T22:14:41.556Z,72.53
2019-06-20T22:17:15.213Z,72.46
2019-06-20T22:19:48.632Z,72.36
2019-06-20T22:22:22.093Z,72.11
2019-06-20T22:24:55.499Z,71.67
2019-06-20T22:27:29.166Z,71.35
2019-06-20T22:30:03.894Z,71.09
2019-06-20T22:32:37.837Z,70.81
2019-06-20T22:35:12.077Z,70.56
2019-06-20T22:37:45.470Z,70.58
2019-06-20T22:40:19.000Z,70.59
2019-06-20T22:42:52.393Z,70.50
2019-06-20T22:45:26.025Z,70.34
2019-06-20T22:47:59.431Z,70.27
2019-06-20T22:50:33.099Z,70.05
2019-06-20T22:53:06.904Z,69.85
2019-06-20T22:55:40.283Z,69.72
2019-06-20T22:58:13.937Z,69.38
2019-06-20T23:00:47.414Z,69.27
2019-06-20T23:03:20.978Z,68.87
2019-06-20T23:05:54.612Z,68.67
2019-06-20T23:08:28.017Z,68.51
2019-06-20T23:11:01.406Z,68.29
2019-06-20T23:13:35.077Z,68.56
2019-06-20T23:16:08.699Z,69.21
2019-06-20T23:18:42.091Z,69.51
2019-06-20T23:21:15.482Z,69.79
2019-06-20T23:23:48.882Z,69.84
2019-06-20T23:26:22.276Z,69.95
2019-06-20T23:29:13.597Z,69.83
2019-06-20T23:31:47.235Z,69.58
2019-06-20T23:34:20.698Z,69.80
2019-06-20T23:36:54.090Z,69.99
2019-06-20T23:39:28.522Z,70.00
2019-06-20T23:42:02.069Z,70.20
2019-06-20T23:44:35.472Z,70.27
2019-06-20T23:47:09.108Z,70.20
2019-06-20T23:49:42.518Z,70.16
2019-06-20T23:52:20.235Z,70.50
2019-06-20T23:54:53.624Z,70.79
2019-06-20T23:57:27.018Z,70.79
